Time;durP1;ratioP1;P1;durP2;ratioP2;P2;SDS_P1;SDS_P2;PMS_P1;PMS_P2;Temp;Humidity;BMP_temperature;BMP_pressure;BME280_temperature;BME280_humidity;BME280_pressure;Samples;Min_cycle;Max_cycle;Signal;HPM_P1;HPM_P2
2023/09/24 16:21:56;;;;;;;3.15;1.90;;;17.30;99.90;;;;;;5131209;27;20319;-77
2023/09/24 16:24:21;;;;;;;3.92;1.90;;;17.10;99.90;;;;;;5111486;28;20103;-78
2023/09/24 16:26:48;;;;;;;4.53;2.17;;;17.10;99.90;;;;;;5111328;28;20362;-79
2023/09/24 16:29:16;;;;;;;5.20;2.17;;;17.10;99.90;;;;;;5111674;28;20027;-80
2023/09/24 16:31:43;;;;;;;5.20;2.20;;;17.10;99.90;;;;;;5111860;28;20153;-80
2023/09/24 16:34:09;;;;;;;3.72;2.00;;;17.10;99.90;;;;;;5110937;28;20429;-78
2023/09/24 16:36:34;;;;;;;3.60;2.15;;;17.20;99.90;;;;;;5111175;28;20098;-77
2023/09/24 16:39:01;;;;;;;4.43;2.25;;;17.20;99.90;;;;;;5111208;28;20373;-77
2023/09/24 16:41:29;;;;;;;4.10;2.13;;;17.20;99.90;;;;;;5111193;28;20503;-78
2023/09/24 16:43:54;;;;;;;3.95;2.03;;;17.20;99.90;;;;;;5091184;28;20028;-80
2023/09/24 16:46:20;;;;;;;4.60;2.55;;;17.20;99.90;;;;;;5108091;28;20465;-77
2023/09/24 16:48:46;;;;;;;3.75;2.33;;;17.20;99.90;;;;;;5111054;28;20066;-78
2023/09/24 16:51:12;;;;;;;5.00;1.98;;;17.30;99.90;;;;;;5092973;28;20435;-78
2023/09/24 16:53:37;;;;;;;5.00;2.60;;;17.20;99.90;;;;;;5111199;28;20024;-78
2023/09/24 16:56:04;;;;;;;5.43;2.40;;;17.20;99.90;;;;;;5110590;28;20020;-82
2023/09/24 16:58:30;;;;;;;3.70;2.10;;;17.20;99.90;;;;;;5092663;28;20057;-76
2023/09/24 17:00:56;;;;;;;3.40;2.25;;;17.30;99.90;;;;;;5110491;28;20032;-79
2023/09/24 17:03:21;;;;;;;4.68;2.03;;;17.30;99.90;;;;;;5110700;28;20357;-78
2023/09/24 17:05:47;;;;;;;3.50;2.28;;;17.30;99.90;;;;;;5111368;28;20502;-78
2023/09/24 17:08:13;;;;;;;6.13;2.63;;;17.20;99.90;;;;;;5110305;28;20026;-78
2023/09/24 17:10:46;;;;;;;7.07;2.72;;;17.20;99.90;;;;;;5092290;28;20054;-79
2023/09/24 17:13:14;;;;;;;11.70;4.85;;;17.30;99.90;;;;;;5102600;28;20016;-81
2023/09/24 17:15:40;;;;;;;9.45;4.55;;;17.30;99.90;;;;;;5095526;28;20073;-77
2023/09/24 17:18:09;;;;;;;7.97;3.17;;;17.20;99.90;;;;;;5110883;28;20470;-77
2023/09/24 17:20:35;;;;;;;6.43;2.25;;;17.20;99.90;;;;;;5092155;28;20089;-77
2023/09/24 17:23:01;;;;;;;7.07;1.80;;;17.20;99.90;;;;;;5110285;28;20023;-78
2023/09/24 17:25:27;;;;;;;4.55;1.67;;;17.20;99.90;;;;;;5110251;28;20026;-79
2023/09/24 17:27:53;;;;;;;4.07;1.48;;;17.10;99.90;;;;;;5110431;28;20023;-82
2023/09/24 17:30:19;;;;;;;2.92;1.40;;;17.10;99.90;;;;;;5110496;28;20533;-76
2023/09/24 17:32:44;;;;;;;3.08;1.55;;;17.10;99.90;;;;;;5099801;28;20027;-79
2023/09/24 17:35:10;;;;;;;3.85;2.25;;;17.10;99.90;;;;;;5078458;28;20380;-79
2023/09/24 17:37:36;;;;;;;3.47;1.65;;;17.10;99.90;;;;;;5096174;28;20347;-79
2023/09/24 17:40:03;;;;;;;2.92;1.52;;;17.10;99.90;;;;;;5096450;28;20106;-80
2023/09/24 17:42:29;;;;;;;3.40;1.70;;;17.10;99.90;;;;;;5078608;28;20339;-78
2023/09/24 17:44:55;;;;;;;3.25;1.63;;;17.10;99.90;;;;;;5096166;28;20469;-78
2023/09/24 17:47:20;;;;;;;4.10;1.52;;;17.10;99.90;;;;;;5078358;28;20028;-78
2023/09/24 17:49:47;;;;;;;2.70;1.38;;;17.10;99.90;;;;;;5096152;28;20128;-78
2023/09/24 17:52:13;;;;;;;2.55;1.05;;;17.00;99.90;;;;;;5096492;28;20086;-77
2023/09/24 17:54:39;;;;;;;1.85;0.77;;;16.90;99.90;;;;;;5096162;28;20459;-80
2023/09/24 17:57:05;;;;;;;1.73;0.60;;;16.90;99.90;;;;;;5077895;28;20066;-78
2023/09/24 17:59:30;;;;;;;2.22;0.98;;;16.90;99.90;;;;;;5076284;28;20036;-77
2023/09/24 18:01:57;;;;;;;2.30;0.80;;;16.90;99.90;;;;;;5072954;28;20117;-78
2023/09/24 18:04:23;;;;;;;3.75;1.15;;;16.90;99.90;;;;;;5084236;28;20016;-77
2023/09/24 18:06:49;;;;;;;2.22;0.77;;;16.90;99.90;;;;;;5095947;28;20027;-80
2023/09/24 18:09:15;;;;;;;1.60;0.75;;;16.90;99.90;;;;;;5096072;28;20028;-77
2023/09/24 18:11:43;;;;;;;5.20;1.08;;;16.80;99.90;;;;;;5095461;28;20395;-79
2023/09/24 18:14:09;;;;;;;2.38;0.65;;;16.80;99.90;;;;;;5095700;28;20024;-78
2023/09/24 18:16:35;;;;;;;3.13;0.90;;;16.70;99.90;;;;;;5077907;28;20415;-77
2023/09/24 18:19:00;;;;;;;2.40;0.85;;;16.70;99.90;;;;;;5095530;28;20028;-79
2023/09/24 18:21:26;;;;;;;2.97;0.90;;;16.70;99.90;;;;;;5095298;28;20174;-78
2023/09/24 18:23:53;;;;;;;2.25;0.98;;;16.70;99.90;;;;;;5095800;28;20035;-78
2023/09/24 18:26:19;;;;;;;1.10;0.77;;;16.70;99.90;;;;;;5095327;28;20020;-78
2023/09/24 18:28:45;;;;;;;2.75;1.00;;;16.80;99.90;;;;;;5095771;28;20407;-79
2023/09/24 18:31:11;;;;;;;2.10;0.80;;;16.80;99.90;;;;;;5095577;28;20134;-78
2023/09/24 18:33:38;;;;;;;2.28;0.70;;;16.80;99.90;;;;;;5095089;28;20390;-79
2023/09/24 18:36:04;;;;;;;2.00;1.05;;;16.80;99.90;;;;;;5095809;28;20046;-77
2023/09/24 18:38:30;;;;;;;2.42;1.13;;;16.80;99.90;;;;;;5095367;28;20357;-78
2023/09/24 18:40:56;;;;;;;1.17;0.68;;;16.80;99.90;;;;;;5077076;28;20031;-79
2023/09/24 18:43:27;;;;;;;1.98;1.00;;;16.90;99.90;;;;;;5094125;28;20516;-78
2023/09/24 18:45:59;;;;;;;3.15;0.90;;;16.80;99.90;;;;;;5095108;28;20016;-77
2023/09/24 18:48:27;;;;;;;1.65;0.70;;;16.90;99.90;;;;;;5095501;28;20393;-78
2023/09/24 18:50:57;;;;;;;1.75;0.80;;;16.80;99.90;;;;;;5077082;28;20059;-78
2023/09/24 18:53:25;;;;;;;3.25;0.90;;;16.80;99.90;;;;;;5094744;28;20103;-78
2023/09/24 18:56:01;;;;;;;1.98;0.82;;;16.80;99.90;;;;;;5095294;28;20020;-78
2023/09/24 18:58:28;;;;;;;3.30;0.88;;;16.70;99.90;;;;;;5091533;28;20111;-79
2023/09/24 19:00:54;;;;;;;3.30;0.85;;;16.70;99.90;;;;;;5094733;28;20075;-79
2023/09/24 19:03:21;;;;;;;1.95;0.82;;;16.60;99.90;;;;;;5079880;28;20420;-80
2023/09/24 19:05:47;;;;;;;2.63;1.20;;;16.50;99.90;;;;;;5087411;28;20024;-80
2023/09/24 19:08:13;;;;;;;5.30;1.30;;;16.50;99.90;;;;;;5094361;28;20431;-81
2023/09/24 19:10:39;;;;;;;2.30;1.00;;;16.40;99.90;;;;;;5076813;28;20107;-79
2023/09/24 19:13:04;;;;;;;2.33;1.08;;;16.40;99.90;;;;;;5094452;28;20024;-80
2023/09/24 19:15:32;;;;;;;3.35;1.20;;;16.30;99.90;;;;;;5094999;28;20099;-78
2023/09/24 19:17:58;;;;;;;2.03;1.63;;;16.40;99.90;;;;;;5076371;28;20031;-81
2023/09/24 19:20:24;;;;;;;3.78;1.25;;;16.30;99.90;;;;;;5094673;28;20044;-79
2023/09/24 19:22:49;;;;;;;3.72;1.30;;;16.20;99.90;;;;;;5094484;28;20028;-79
2023/09/24 19:25:15;;;;;;;3.25;1.27;;;16.20;99.90;;;;;;5076545;28;20354;-79
2023/09/24 19:27:41;;;;;;;3.97;1.25;;;16.10;99.90;;;;;;5076308;28;20031;-78
2023/09/24 19:30:09;;;;;;;4.13;1.30;;;16.10;99.90;;;;;;5094467;28;20089;-79
2023/09/24 19:33:33;;;;;;;5.22;1.70;;;15.90;99.90;;;;;;5163301;27;20319;-80
2023/09/24 19:36:04;;;;;;;5.75;4.00;;;15.70;99.90;;;;;;5152577;27;20457;-79
2023/09/24 19:38:30;;;;;;;4.18;3.15;;;15.60;99.90;;;;;;5134292;27;20046;-80
2023/09/24 19:41:03;;;;;;;6.90;3.50;;;15.60;99.90;;;;;;5153140;27;20023;-79
2023/09/24 19:43:30;;;;;;;6.43;4.10;;;15.50;99.90;;;;;;5152617;27;20027;-77
2023/09/24 19:45:58;;;;;;;5.78;4.20;;;15.50;99.90;;;;;;5152699;27;20061;-77
2023/09/24 19:48:28;;;;;;;4.80;3.78;;;15.50;99.90;;;;;;5152205;27;20544;-77
2023/09/24 19:50:54;;;;;;;7.60;3.90;;;15.50;99.90;;;;;;5152153;27;20021;-77
2023/09/24 19:53:20;;;;;;;5.68;4.57;;;15.50;99.90;;;;;;5133880;27;20342;-77
2023/09/24 19:55:48;;;;;;;6.70;4.47;;;15.50;99.90;;;;;;5152155;27;20127;-77
2023/09/24 19:58:13;;;;;;;4.95;4.43;;;15.50;99.90;;;;;;5134056;27;20461;-77
2023/09/24 20:00:39;;;;;;;4.88;4.35;;;15.40;99.90;;;;;;5133958;27;20053;-80
2023/09/24 20:03:05;;;;;;;5.97;5.00;;;15.50;99.90;;;;;;5151935;27;20027;-77
2023/09/24 20:05:31;;;;;;;5.70;4.93;;;15.50;99.90;;;;;;5116720;27;20050;-78
2023/09/24 20:07:59;;;;;;;5.82;5.07;;;15.40;99.90;;;;;;5133816;27;20104;-78
2023/09/24 20:10:24;;;;;;;5.20;4.43;;;15.50;99.90;;;;;;5119152;28;20055;-77
2023/09/24 20:12:50;;;;;;;4.95;3.80;;;15.40;99.90;;;;;;5142279;27;20062;-77
2023/09/24 20:15:16;;;;;;;4.70;4.30;;;15.40;99.90;;;;;;5133562;27;20407;-77
2023/09/24 20:17:42;;;;;;;4.53;3.50;;;;;;;;;;5151719;27;20093;-79
2023/09/24 20:20:10;;;;;;;5.35;4.05;;;15.30;99.90;;;;;;5152342;27;20019;-77
2023/09/24 20:22:35;;;;;;;4.00;3.08;;;15.40;99.90;;;;;;5151936;27;20027;-78
2023/09/24 20:25:09;;;;;;;4.57;3.78;;;15.40;99.90;;;;;;5151914;27;20425;-77
2023/09/24 20:27:35;;;;;;;5.20;3.30;;;15.40;99.90;;;;;;5152330;27;20023;-77
2023/09/24 20:30:03;;;;;;;4.90;3.72;;;15.40;99.90;;;;;;5151565;27;20172;-78
2023/09/24 20:32:30;;;;;;;4.90;2.85;;;15.50;99.90;;;;;;5151510;27;20046;-77
2023/09/24 20:34:56;;;;;;;4.72;3.25;;;15.40;99.90;;;;;;5133370;27;20388;-78
2023/09/24 20:37:22;;;;;;;4.38;3.58;;;15.40;99.90;;;;;;5151386;27;20026;-77
2023/09/24 20:39:48;;;;;;;4.25;3.33;;;15.40;99.90;;;;;;5151359;27;20041;-76
2023/09/24 20:42:13;;;;;;;4.20;2.90;;;15.40;99.90;;;;;;5151697;27;20450;-77
2023/09/24 20:44:39;;;;;;;3.58;2.70;;;15.40;99.90;;;;;;5138828;27;20023;-78
2023/09/24 20:47:17;;;;;;;4.95;2.55;;;15.30;99.90;;;;;;5126092;27;20032;-77
2023/09/24 20:49:44;;;;;;;5.00;2.97;;;15.40;99.90;;;;;;5132060;27;20046;-78
2023/09/24 20:52:11;;;;;;;4.78;2.97;;;15.30;99.90;;;;;;5137288;27;20019;-77
2023/09/24 20:54:36;;;;;;;6.90;3.00;;;15.30;99.90;;;;;;5137444;27;20030;-78
2023/09/24 20:57:02;;;;;;;4.72;2.63;;;15.30;99.90;;;;;;5137252;27;20019;-79
2023/09/24 20:59:34;;;;;;;3.70;2.85;;;15.30;99.90;;;;;;5118654;27;20456;-78
2023/09/24 21:02:00;;;;;;;3.47;2.90;;;15.30;99.90;;;;;;5134240;27;20019;-77
2023/09/24 21:04:27;;;;;;;4.63;3.03;;;15.30;99.90;;;;;;5107412;27;20334;-77
2023/09/24 21:06:52;;;;;;;7.28;3.00;;;15.30;99.90;;;;;;5118600;27;20079;-77
2023/09/24 21:09:18;;;;;;;5.75;3.22;;;15.30;99.90;;;;;;5137263;27;20118;-78
2023/09/24 21:11:44;;;;;;;3.58;2.70;;;15.20;99.90;;;;;;5137436;27;20039;-78
2023/09/24 21:14:10;;;;;;;3.17;2.88;;;15.20;99.90;;;;;;5136599;27;20027;-77
2023/09/24 21:16:36;;;;;;;3.33;2.92;;;15.20;99.90;;;;;;5136855;27;20144;-78
2023/09/24 21:19:04;;;;;;;3.83;3.17;;;15.20;99.90;;;;;;5136971;27;20050;-79
2023/09/24 21:21:35;;;;;;;5.13;3.28;;;15.20;99.90;;;;;;5136912;27;20027;-78
2023/09/24 21:24:02;;;;;;;3.38;3.08;;;15.20;99.90;;;;;;5116361;28;20104;-81
2023/09/24 21:26:28;;;;;;;4.57;2.40;;;15.20;99.90;;;;;;5134049;27;20019;-80
2023/09/24 21:28:53;;;;;;;4.93;2.88;;;15.10;99.90;;;;;;5136510;27;20114;-79
2023/09/24 21:31:22;;;;;;;3.97;2.53;;;15.10;99.90;;;;;;5118001;27;20482;-77
2023/09/24 21:33:49;;;;;;;4.00;2.50;;;15.10;99.90;;;;;;5136707;27;20027;-78
2023/09/24 21:36:15;;;;;;;3.63;2.42;;;15.10;99.90;;;;;;5101490;27;20027;-79
2023/09/24 21:38:40;;;;;;;5.45;2.72;;;15.10;99.90;;;;;;5136112;27;20030;-80
2023/09/24 21:41:06;;;;;;;3.13;2.63;;;15.20;99.90;;;;;;5135738;27;20031;-77
2023/09/24 21:43:32;;;;;;;4.57;2.80;;;15.10;99.90;;;;;;5135054;27;20408;-78
2023/09/24 21:46:03;;;;;;;3.80;2.85;;;15.10;99.90;;;;;;5135804;27;20023;-78
2023/09/24 21:48:30;;;;;;;4.80;2.90;;;15.10;99.90;;;;;;5135360;27;20061;-77
2023/09/24 21:50:55;;;;;;;5.28;3.10;;;15.20;99.90;;;;;;5136343;27;20083;-78
2023/09/24 21:53:21;;;;;;;4.97;2.92;;;15.20;99.90;;;;;;5117593;27;20122;-77
2023/09/24 21:55:48;;;;;;;3.85;2.88;;;15.20;99.90;;;;;;5134571;27;20052;-78
2023/09/24 21:58:18;;;;;;;4.35;3.05;;;15.20;99.90;;;;;;5135474;27;20022;-77
2023/09/24 22:00:43;;;;;;;7.05;2.80;;;15.20;99.90;;;;;;5135415;27;20019;-78
2023/09/24 22:03:09;;;;;;;5.13;3.00;;;15.20;99.90;;;;;;5135385;27;20080;-79
2023/09/24 22:05:42;;;;;;;16.63;3.53;;;15.20;99.90;;;;;;5134358;27;20023;-78
2023/09/24 22:08:09;;;;;;;4.85;3.22;;;15.20;99.90;;;;;;5135969;27;20019;-78
2023/09/24 22:10:35;;;;;;;8.25;3.60;;;15.20;99.90;;;;;;5117313;27;20480;-79
2023/09/24 22:13:02;;;;;;;3.92;3.30;;;15.20;99.90;;;;;;5132283;27;20042;-80
2023/09/24 22:15:29;;;;;;;5.47;3.45;;;15.20;99.90;;;;;;5135144;27;20042;-81
2023/09/24 22:17:56;;;;;;;4.93;3.17;;;15.20;99.90;;;;;;5134950;27;20445;-79
2023/09/24 22:20:23;;;;;;;6.43;3.65;;;15.20;99.90;;;;;;5135151;27;20026;-78
2023/09/24 22:22:49;;;;;;;5.03;2.90;;;15.10;99.90;;;;;;5114436;28;20027;-76
2023/09/24 22:25:15;;;;;;;4.63;3.08;;;15.20;99.90;;;;;;5131668;27;20027;-77
2023/09/24 22:27:42;;;;;;;6.15;3.40;;;15.10;99.90;;;;;;5135021;27;20020;-78
2023/09/24 22:30:09;;;;;;;3.53;2.70;;;15.10;99.90;;;;;;5134954;27;20449;-77
2023/09/24 22:32:38;;;;;;;3.92;2.80;;;15.10;99.90;;;;;;5112618;28;20473;-77
2023/09/24 22:35:15;;;;;;;6.53;2.92;;;15.10;99.90;;;;;;5114506;28;20019;-76
2023/09/24 22:37:44;;;;;;;12.65;4.85;;;15.10;99.90;;;;;;5111814;28;20020;-76
2023/09/24 22:40:11;;;;;;;4.85;3.25;;;15.10;99.90;;;;;;5100511;28;20024;-77
2023/09/24 22:42:38;;;;;;;4.75;2.97;;;15.20;99.90;;;;;;5112770;28;20051;-76
2023/09/24 22:45:04;;;;;;;6.00;2.97;;;15.20;99.90;;;;;;5113988;28;20030;-79
2023/09/24 22:47:30;;;;;;;7.68;3.22;;;15.10;99.90;;;;;;5114312;28;20054;-78
2023/09/24 22:49:57;;;;;;;5.47;3.38;;;15.10;99.90;;;;;;5112819;28;20055;-78
2023/09/24 22:52:22;;;;;;;4.85;3.30;;;15.10;99.90;;;;;;5113325;28;20031;-78
2023/09/24 22:54:48;;;;;;;5.13;3.83;;;15.10;99.90;;;;;;5113788;28;20081;-81
2023/09/24 22:57:14;;;;;;;5.72;3.13;;;15.20;99.90;;;;;;5112987;28;20020;-78
2023/09/24 22:59:40;;;;;;;6.07;3.33;;;15.20;99.90;;;;;;5112472;28;20051;-79
2023/09/24 23:02:06;;;;;;;8.25;4.03;;;15.20;99.90;;;;;;5114487;28;20031;-77
2023/09/24 23:04:32;;;;;;;6.38;4.47;;;15.20;99.90;;;;;;5114508;28;20057;-77
2023/09/24 23:06:57;;;;;;;10.70;4.70;;;15.20;99.90;;;;;;5111192;27;20030;-79
2023/09/24 23:09:23;;;;;;;6.60;4.15;;;15.10;99.90;;;;;;5105722;28;20023;-78
2023/09/24 23:11:49;;;;;;;8.30;4.22;;;15.10;99.90;;;;;;5112866;28;20119;-77
2023/09/24 23:14:15;;;;;;;9.00;3.83;;;15.20;99.90;;;;;;5114117;28;20073;-76
2023/09/24 23:16:41;;;;;;;7.00;3.58;;;15.10;99.90;;;;;;5113301;28;20074;-77
2023/09/24 23:19:08;;;;;;;6.43;3.83;;;15.20;99.90;;;;;;5114350;28;20400;-80
2023/09/24 23:21:35;;;;;;;10.32;4.38;;;15.20;99.90;;;;;;5110019;28;20374;-78
2023/09/24 23:24:00;;;;;;;7.57;4.25;;;15.10;99.90;;;;;;5110664;28;20442;-77
2023/09/24 23:26:28;;;;;;;8.25;4.10;;;15.10;99.90;;;;;;5112711;28;20039;-77
2023/09/24 23:28:55;;;;;;;8.07;4.45;;;15.10;99.90;;;;;;5114546;28;20068;-78
2023/09/24 23:31:22;;;;;;;9.45;4.50;;;15.10;99.90;;;;;;5114954;28;20068;-76
2023/09/24 23:33:48;;;;;;;8.00;4.45;;;15.20;99.90;;;;;;5116087;28;20027;-78
2023/09/24 23:36:14;;;;;;;7.57;4.20;;;15.20;99.90;;;;;;5134596;28;20015;-80
2023/09/24 23:38:41;;;;;;;10.48;5.03;;;15.20;99.90;;;;;;5134690;28;20357;-76
2023/09/24 23:41:07;;;;;;;8.30;4.50;;;15.30;99.90;;;;;;5134376;28;20035;-78
2023/09/24 23:43:33;;;;;;;8.55;4.60;;;15.40;99.90;;;;;;5134374;28;20023;-78
2023/09/24 23:46:04;;;;;;;9.05;4.72;;;15.40;99.90;;;;;;5134641;28;20064;-77
2023/09/24 23:48:34;;;;;;;11.77;5.07;;;15.40;99.90;;;;;;5134153;28;20365;-77
2023/09/24 23:51:01;;;;;;;10.20;4.60;;;15.40;99.90;;;;;;5134788;28;20027;-75
2023/09/24 23:53:27;;;;;;;9.35;5.20;;;15.40;99.90;;;;;;5115935;28;20045;-77
2023/09/24 23:55:53;;;;;;;10.32;4.45;;;15.50;99.90;;;;;;5134056;28;20011;-76
2023/09/24 23:58:19;;;;;;;11.98;4.47;;;15.50;99.90;;;;;;5115772;28;20068;-78
